الصفحة الرئيسية
METAR-TAF:

METAR-TAF

مطار :

فيينتيان, لاوس

مطار واتاي الدولي

دائرة عرض: 17-57N, خط طول: 102-34E, ارتفاع: 171 متر

مراقبة الطقس الحالي

تاريخ ووقت الإصدار 14 دقيقة قبل الساعة 16:00UTC
ريح 2 عقدة من الجنوب الغربي
درجة الحرارة 27°درجة مئوية
الرطوبة 84%
ضغط 1007 hPa
الرؤية: 4000 متر
غشاء

METAR: VLVT 221600Z 22002KT 4000 BR NSC 27/24 Q1007 NOSIG

زمن: 23:14 (16:14 UTC)

توقعات

تاريخ ووقت الإصدار 5ساعات و 14 دقيقة قبل الساعة 11:00UTC
التوقعات صالحة من22 الساعة 12 UTC إلى 23 الساعة 12 UTC
ريح 4 عقدة من الغرب
الرؤية: 7000 متر
غيوم متفرقة على ارتفاع 2000 قدم
غيوم قليلة على ارتفاع 5000 قدم
مؤقت
من 22 الساعة 14 UTC إلى 22 الساعة 20 UTC
الرؤية: 4000 متر
غيوم قليلة على ارتفاع 5000 قدم
غشاء

TAF: VLVT 221100Z 2212/2312 27004KT 7000 SCT020 FEW050 TEMPO 2214/2220 4000 BR FEW050

أرصاد الطقس والتوقعات من أكثر من 4000 مطار (تقارير الطقس للمطار METAR والتنبؤ بالطقس بالمطارTAF).

المحطات المتاحة هي النقط الصفراء والحمراء على الخريطة.

حرك المؤشر فوق النقطة لمعرفة اسم المحطة.

ثم انقر لمعرفة أرصاد وتوقعات الطقس.

لتغيير الخارطة: اضغط على الأزرار الخضراء مع رمز الصليب الأسود للتكبير. على الزر الأخضر مع شرطة للتصغير، أو على الأسهم الخضراء للخرائط المجاورة.


METAR-TAF: